MEV Airport (Minden-Tahoe) Information

FAA: MEV - ICAO: KMEV

MEV Airport Location

State Nevada
County Douglas
City Minden
MEV Airport is 4 miles north of Minden, NV.
Latitude 39-00-01.8000N
Longitude 119-45-04.0000W
Elevation 4,723ft

KMEV Airport METARs

METAR KMEV 250035Z AUTO 07008KT 3SM -RA BR BKN035 OVC043 11/09 A2954 RMK AO2
Altimeter 29.54"
Temperature 11.0°C (51.8°F)
Wind 70° at 8KT
Clouds broken at 3,500ft overcast at 4,300ft
Visibility 3.0mi
Time observed: 2021-10-25T00:35:00Z

MEV Airport Details

Status Operational
Activation December 1942
Ownership Public
Usage Public
Chart SAN FRANCISCO
ATC on-site No
Beacon schedule sunset-sunrise
Beacon color clear green

MEV Airport Contacts

Owner DOUGLAS COUNTY
Owner address P O BOX 218, MINDEN, NV 89423
Owner phone 775-782-9871
Manager ROSEMARY A. VASSILIADIS
Manager address 5757 WAYNE NEWTON BLVD, LAS VEGAS, NV 89119
Manager phone (702) 261-4525

MEV Airport (Minden-Tahoe) Radio Frequencies

MEV (Airport) Radio Frequencies

UNICOM 123.05
Common traffic advisory frequency (CTAF) 123.05